sensor_id;sensor_type;location;lat;lon;timestamp;pressure;altitude;pressure_sealevel;temperature;humidity
32789;BME280;19141;48.980;8.410;2023-04-23T04:22:33;99687.69;;;11.59;100.00
32789;BME280;19141;48.980;8.410;2023-04-23T04:24:58;99686.69;;;11.60;100.00
32789;BME280;19141;48.980;8.410;2023-04-23T04:27:24;99686.69;;;11.60;100.00
32789;BME280;19141;48.980;8.410;2023-04-23T04:29:49;99688.78;;;11.65;100.00
32789;BME280;19141;48.980;8.410;2023-04-23T04:32:16;99678.69;;;11.60;100.00
32789;BME280;19141;48.980;8.410;2023-04-23T04:34:41;99687.19;;;11.71;100.00
32789;BME280;19141;48.980;8.410;2023-04-23T04:37:07;99681.84;;;11.71;100.00
32789;BME280;19141;48.980;8.410;2023-04-23T04:39:34;99680.00;;;11.71;100.00
32789;BME280;19141;48.980;8.410;2023-04-23T04:41:59;99685.53;;;11.69;100.00
32789;BME280;19141;48.980;8.410;2023-04-23T04:44:27;99685.53;;;11.69;100.00
32789;BME280;19141;48.980;8.410;2023-04-23T04:46:53;99686.56;;;11.68;100.00
32789;BME280;19141;48.980;8.410;2023-04-23T04:49:18;99684.97;;;11.74;100.00
32789;BME280;19141;48.980;8.410;2023-04-23T04:51:43;99679.22;;;11.77;100.00
32789;BME280;19141;48.980;8.410;2023-04-23T04:54:09;99678.34;;;11.70;100.00
32789;BME280;19141;48.980;8.410;2023-04-23T04:56:34;99669.91;;;11.66;100.00
32789;BME280;19141;48.980;8.410;2023-04-23T04:59:00;99677.53;;;11.69;100.00
32789;BME280;19141;48.980;8.410;2023-04-23T05:01:27;99678.72;;;11.67;100.00
32789;BME280;19141;48.980;8.410;2023-04-23T05:03:53;99684.50;;;11.71;100.00
32789;BME280;19141;48.980;8.410;2023-04-23T05:06:19;99684.50;;;11.71;100.00
32789;BME280;19141;48.980;8.410;2023-04-23T05:08:44;99692.31;;;11.72;100.00
32789;BME280;19141;48.980;8.410;2023-04-23T05:11:16;99683.13;;;11.75;100.00
32789;BME280;19141;48.980;8.410;2023-04-23T05:13:46;99690.06;;;11.69;100.00
32789;BME280;19141;48.980;8.410;2023-04-23T05:16:12;99684.97;;;11.74;100.00
32789;BME280;19141;48.980;8.410;2023-04-23T05:18:38;99687.22;;;11.77;100.00
32789;BME280;19141;48.980;8.410;2023-04-23T05:21:04;99680.25;;;11.76;100.00
32789;BME280;19141;48.980;8.410;2023-04-23T05:23:30;99680.81;;;11.72;100.00
32789;BME280;19141;48.980;8.410;2023-04-23T05:25:56;99682.09;;;11.76;100.00
32789;BME280;19141;48.980;8.410;2023-04-23T05:28:23;99683.94;;;11.75;100.00
32789;BME280;19141;48.980;8.410;2023-04-23T05:30:48;99676.97;;;11.74;100.00
32789;BME280;19141;48.980;8.410;2023-04-23T05:33:14;99684.13;;;11.74;100.00
32789;BME280;19141;48.980;8.410;2023-04-23T05:35:40;99676.75;;;11.76;100.00
32789;BME280;19141;48.980;8.410;2023-04-23T05:38:05;99676.34;;;11.79;100.00
32789;BME280;19141;48.980;8.410;2023-04-23T05:40:31;99665.69;;;11.79;100.00
32789;BME280;19141;48.980;8.410;2023-04-23T05:42:57;99672.66;;;11.80;100.00
32789;BME280;19141;48.980;8.410;2023-04-23T05:45:22;99680.13;;;11.84;100.00
32789;BME280;19141;48.980;8.410;2023-04-23T05:47:48;99675.41;;;11.86;100.00
32789;BME280;19141;48.980;8.410;2023-04-23T05:50:13;99680.13;;;11.84;100.00
32789;BME280;19141;48.980;8.410;2023-04-23T05:52:39;99686.28;;;11.85;100.00
32789;BME280;19141;48.980;8.410;2023-04-23T05:55:05;99689.03;;;11.98;100.00
32789;BME280;19141;48.980;8.410;2023-04-23T05:57:32;99684.59;;;12.12;100.00
32789;BME280;19141;48.980;8.410;2023-04-23T05:59:57;99682.13;;;12.10;100.00
32789;BME280;19141;48.980;8.410;2023-04-23T06:02:22;99676.78;;;12.10;100.00
32789;BME280;19141;48.980;8.410;2023-04-23T06:04:48;99684.75;;;12.04;100.00
32789;BME280;19141;48.980;8.410;2023-04-23T06:07:13;99680.69;;;12.08;100.00
32789;BME280;19141;48.980;8.410;2023-04-23T06:09:39;99682.72;;;12.06;100.00
32789;BME280;19141;48.980;8.410;2023-04-23T06:12:05;99681.09;;;12.11;100.00
32789;BME280;19141;48.980;8.410;2023-04-23T06:14:31;99674.59;;;12.20;100.00
32789;BME280;19141;48.980;8.410;2023-04-23T06:16:56;99677.19;;;12.07;100.00
32789;BME280;19141;48.980;8.410;2023-04-23T06:19:21;99669.22;;;12.14;100.00
32789;BME280;19141;48.980;8.410;2023-04-23T06:21:50;99662.47;;;12.25;100.00
32789;BME280;19141;48.980;8.410;2023-04-23T06:24:16;99673.19;;;12.31;100.00
32789;BME280;19141;48.980;8.410;2023-04-23T06:26:41;99669.31;;;12.34;100.00
32789;BME280;19141;48.980;8.410;2023-04-23T06:29:14;99669.16;;;12.42;100.00
32789;BME280;19141;48.980;8.410;2023-04-23T06:32:01;99673.75;;;12.61;100.00
32789;BME280;19141;48.980;8.410;2023-04-23T06:34:27;99671.91;;;12.68;100.00
32789;BME280;19141;48.980;8.410;2023-04-23T06:36:53;99668.44;;;12.68;100.00
32789;BME280;19141;48.980;8.410;2023-04-23T06:39:18;99662.50;;;12.79;100.00
32789;BME280;19141;48.980;8.410;2023-04-23T06:41:44;99666.03;;;12.99;100.00
32789;BME280;19141;48.980;8.410;2023-04-23T06:44:20;99669.97;;;13.17;100.00
32789;BME280;19141;48.980;8.410;2023-04-23T06:46:50;99661.16;;;13.29;100.00
32789;BME280;19141;48.980;8.410;2023-04-23T06:49:15;99667.16;;;13.45;100.00
32789;BME280;19141;48.980;8.410;2023-04-23T06:51:40;99658.47;;;13.56;100.00
32789;BME280;19141;48.980;8.410;2023-04-23T06:54:06;99657.47;;;13.64;100.00
32789;BME280;19141;48.980;8.410;2023-04-23T06:56:31;99661.78;;;13.71;100.00
32789;BME280;19141;48.980;8.410;2023-04-23T06:58:57;99654.56;;;13.78;100.00
32789;BME280;19141;48.980;8.410;2023-04-23T07:01:22;99655.16;;;13.87;100.00
32789;BME280;19141;48.980;8.410;2023-04-23T07:03:47;99654.34;;;13.87;100.00
32789;BME280;19141;48.980;8.410;2023-04-23T07:06:15;99651.88;;;13.92;100.00
32789;BME280;19141;48.980;8.410;2023-04-23T07:08:42;99649.56;;;13.95;100.00
32789;BME280;19141;48.980;8.410;2023-04-23T07:11:09;99646.72;;;13.97;100.00
32789;BME280;19141;48.980;8.410;2023-04-23T07:13:35;99646.72;;;13.97;100.00
32789;BME280;19141;48.980;8.410;2023-04-23T07:16:00;99644.25;;;14.02;100.00
32789;BME280;19141;48.980;8.410;2023-04-23T07:18:26;99644.25;;;14.02;100.00
32789;BME280;19141;48.980;8.410;2023-04-23T07:20:51;99639.88;;;14.07;100.00
32789;BME280;19141;48.980;8.410;2023-04-23T07:23:17;99638.66;;;14.10;100.00
32789;BME280;19141;48.980;8.410;2023-04-23T07:25:42;99641.53;;;14.15;100.00
32789;BME280;19141;48.980;8.410;2023-04-23T07:28:07;99633.03;;;14.18;100.00
32789;BME280;19141;48.980;8.410;2023-04-23T07:30:33;99644.81;;;14.17;100.00
32789;BME280;19141;48.980;8.410;2023-04-23T07:32:58;99637.16;;;14.21;100.00
32789;BME280;19141;48.980;8.410;2023-04-23T07:35:24;99634.25;;;14.29;100.00
32789;BME280;19141;48.980;8.410;2023-04-23T07:37:51;99624.13;;;14.37;100.00
32789;BME280;19141;48.980;8.410;2023-04-23T07:40:20;99626.34;;;14.47;100.00
32789;BME280;19141;48.980;8.410;2023-04-23T07:42:46;99626.16;;;14.49;97.16
32789;BME280;19141;48.980;8.410;2023-04-23T07:45:12;99620.19;;;14.47;97.34
32789;BME280;19141;48.980;8.410;2023-04-23T07:47:37;99617.44;;;14.60;99.20
32789;BME280;19141;48.980;8.410;2023-04-23T07:50:03;99623.16;;;14.70;100.00
32789;BME280;19141;48.980;8.410;2023-04-23T07:52:28;99619.63;;;14.76;97.17
32789;BME280;19141;48.980;8.410;2023-04-23T07:54:54;99618.97;;;14.81;94.20
32789;BME280;19141;48.980;8.410;2023-04-23T07:57:20;99618.13;;;14.87;93.91
32789;BME280;19141;48.980;8.410;2023-04-23T07:59:45;99622.34;;;15.01;94.91
32789;BME280;19141;48.980;8.410;2023-04-23T08:02:10;99620.50;;;15.02;93.95
32789;BME280;19141;48.980;8.410;2023-04-23T08:04:36;99611.75;;;15.13;95.99
32789;BME280;19141;48.980;8.410;2023-04-23T08:07:01;99604.88;;;15.17;94.52
32789;BME280;19141;48.980;8.410;2023-04-23T08:09:26;99610.25;;;15.42;95.59
32789;BME280;19141;48.980;8.410;2023-04-23T08:11:52;99607.25;;;15.32;88.44
32789;BME280;19141;48.980;8.410;2023-04-23T08:14:19;99598.47;;;15.43;89.05
32789;BME280;19141;48.980;8.410;2023-04-23T08:16:44;99596.38;;;15.70;88.82
32789;BME280;19141;48.980;8.410;2023-04-23T08:19:10;99600.38;;;15.86;91.59
32789;BME280;19141;48.980;8.410;2023-04-23T08:21:37;99600.66;;;15.96;88.71
32789;BME280;19141;48.980;8.410;2023-04-23T08:24:02;99593.50;;;16.08;88.88
32789;BME280;19141;48.980;8.410;2023-04-23T08:26:28;99587.44;;;16.13;86.49
32789;BME280;19141;48.980;8.410;2023-04-23T08:28:54;99592.16;;;16.17;83.01
32789;BME280;19141;48.980;8.410;2023-04-23T08:31:20;99586.41;;;16.14;80.17
32789;BME280;19141;48.980;8.410;2023-04-23T08:33:45;99587.13;;;16.21;79.06
32789;BME280;19141;48.980;8.410;2023-04-23T08:36:11;99574.09;;;16.24;80.62
32789;BME280;19141;48.980;8.410;2023-04-23T08:38:36;99580.47;;;16.23;81.04
32789;BME280;19141;48.980;8.410;2023-04-23T08:41:05;99573.13;;;16.19;79.52
32789;BME280;19141;48.980;8.410;2023-04-23T08:43:36;99578.00;;;16.40;78.07
32789;BME280;19141;48.980;8.410;2023-04-23T08:46:03;99573.41;;;16.59;74.13
32789;BME280;19141;48.980;8.410;2023-04-23T08:48:29;99576.59;;;16.68;75.91
32789;BME280;19141;48.980;8.410;2023-04-23T08:50:56;99579.47;;;16.85;73.49
32789;BME280;19141;48.980;8.410;2023-04-23T08:53:24;99577.72;;;16.60;69.76
32789;BME280;19141;48.980;8.410;2023-04-23T08:55:53;99576.00;;;17.07;71.27
32789;BME280;19141;48.980;8.410;2023-04-23T08:58:21;99566.78;;;17.27;76.09
32789;BME280;19141;48.980;8.410;2023-04-23T09:00:48;99569.72;;;17.37;73.55
32789;BME280;19141;48.980;8.410;2023-04-23T09:03:17;99577.78;;;17.25;65.64
32789;BME280;19141;48.980;8.410;2023-04-23T09:05:43;99570.09;;;17.29;67.86
32789;BME280;19141;48.980;8.410;2023-04-23T09:08:09;99569.13;;;17.58;69.35
32789;BME280;19141;48.980;8.410;2023-04-23T09:10:36;99564.00;;;17.80;69.76
32789;BME280;19141;48.980;8.410;2023-04-23T09:13:04;99559.50;;;17.86;69.76
32789;BME280;19141;48.980;8.410;2023-04-23T09:15:29;99558.53;;;18.04;73.06
32789;BME280;19141;48.980;8.410;2023-04-23T09:17:56;99555.03;;;18.03;69.12
32789;BME280;19141;48.980;8.410;2023-04-23T09:20:22;99557.03;;;18.08;63.24
32789;BME280;19141;48.980;8.410;2023-04-23T09:22:49;99550.91;;;18.12;61.71
32789;BME280;19141;48.980;8.410;2023-04-23T09:25:17;99552.28;;;18.27;63.68
32789;BME280;19141;48.980;8.410;2023-04-23T09:27:43;99535.28;;;18.26;63.87
32789;BME280;19141;48.980;8.410;2023-04-23T09:30:10;99533.41;;;18.27;66.17
32789;BME280;19141;48.980;8.410;2023-04-23T09:32:37;99534.78;;;18.29;62.73
32789;BME280;19141;48.980;8.410;2023-04-23T09:35:04;99525.78;;;18.52;63.63
32789;BME280;19141;48.980;8.410;2023-04-23T09:37:31;99520.13;;;18.82;60.52
32789;BME280;19141;48.980;8.410;2023-04-23T09:40:01;99517.34;;;18.94;58.06
32789;BME280;19141;48.980;8.410;2023-04-23T09:42:29;99511.56;;;19.41;60.02
32789;BME280;19141;48.980;8.410;2023-04-23T09:45:02;99515.25;;;19.51;64.94
32789;BME280;19141;48.980;8.410;2023-04-23T09:47:37;99496.94;;;19.75;58.05
32789;BME280;19141;48.980;8.410;2023-04-23T09:50:03;99499.56;;;19.92;63.75
32789;BME280;19141;48.980;8.410;2023-04-23T09:52:31;99500.06;;;20.11;54.40
32789;BME280;19141;48.980;8.410;2023-04-23T09:54:57;99494.53;;;20.01;50.87
32789;BME280;19141;48.980;8.410;2023-04-23T09:57:25;99488.91;;;20.29;51.86
32789;BME280;19141;48.980;8.410;2023-04-23T09:59:51;99486.16;;;20.51;52.94
32789;BME280;19141;48.980;8.410;2023-04-23T10:02:16;99483.84;;;20.38;53.63
32789;BME280;19141;48.980;8.410;2023-04-23T10:04:43;99485.31;;;19.97;49.23
32789;BME280;19141;48.980;8.410;2023-04-23T10:07:08;99481.28;;;20.26;53.19
32789;BME280;19141;48.980;8.410;2023-04-23T10:09:39;99477.56;;;20.32;48.71
32789;BME280;19141;48.980;8.410;2023-04-23T10:12:06;99466.97;;;20.26;48.35
32789;BME280;19141;48.980;8.410;2023-04-23T10:14:31;99462.28;;;20.16;51.09
32789;BME280;19141;48.980;8.410;2023-04-23T10:16:58;99465.78;;;20.44;51.08
32789;BME280;19141;48.980;8.410;2023-04-23T10:19:24;99466.84;;;20.70;49.75
32789;BME280;19141;48.980;8.410;2023-04-23T10:21:56;99463.59;;;20.68;48.77
32789;BME280;19141;48.980;8.410;2023-04-23T10:24:23;99463.75;;;20.88;48.03
32789;BME280;19141;48.980;8.410;2023-04-23T10:26:51;99461.78;;;20.78;48.33
32789;BME280;19141;48.980;8.410;2023-04-23T10:29:20;99456.31;;;20.41;50.68
32789;BME280;19141;48.980;8.410;2023-04-23T10:31:52;99455.59;;;20.51;50.50
32789;BME280;19141;48.980;8.410;2023-04-23T10:34:18;99449.44;;;20.55;49.38
32789;BME280;19141;48.980;8.410;2023-04-23T10:36:43;99454.38;;;21.06;49.66
32789;BME280;19141;48.980;8.410;2023-04-23T10:39:08;99445.31;;;21.80;49.01
32789;BME280;19141;48.980;8.410;2023-04-23T10:41:40;99441.50;;;21.76;46.07
32789;BME280;19141;48.980;8.410;2023-04-23T10:44:10;99443.28;;;21.50;45.96
32789;BME280;19141;48.980;8.410;2023-04-23T10:46:36;99447.31;;;21.42;47.98
32789;BME280;19141;48.980;8.410;2023-04-23T10:49:06;99442.28;;;21.71;47.16
32789;BME280;19141;48.980;8.410;2023-04-23T10:51:35;99440.66;;;21.18;48.20
32789;BME280;19141;48.980;8.410;2023-04-23T10:54:02;99436.78;;;21.46;46.34
32789;BME280;19141;48.980;8.410;2023-04-23T10:56:29;99438.50;;;20.77;45.37
32789;BME280;19141;48.980;8.410;2023-04-23T10:58:55;99435.72;;;20.67;46.33
32789;BME280;19141;48.980;8.410;2023-04-23T11:01:23;99424.84;;;21.42;48.43
32789;BME280;19141;48.980;8.410;2023-04-23T11:03:51;99428.81;;;21.86;46.55
32789;BME280;19141;48.980;8.410;2023-04-23T11:11:56;99412.09;;;22.76;44.55
32789;BME280;19141;48.980;8.410;2023-04-23T11:17:02;99405.16;;;23.40;41.88
32789;BME280;19141;48.980;8.410;2023-04-23T11:19:28;99396.88;;;22.80;41.05
32789;BME280;19141;48.980;8.410;2023-04-23T11:22:05;99392.50;;;23.15;41.23
32789;BME280;19141;48.980;8.410;2023-04-23T11:24:34;99385.50;;;22.53;40.96
32789;BME280;19141;48.980;8.410;2023-04-23T11:27:05;99375.19;;;22.65;41.55
32789;BME280;19141;48.980;8.410;2023-04-23T11:29:31;99371.66;;;22.90;41.58
32789;BME280;19141;48.980;8.410;2023-04-23T11:31:56;99363.09;;;23.27;39.69
32789;BME280;19141;48.980;8.410;2023-04-23T11:34:22;99359.06;;;23.79;41.16
32789;BME280;19141;48.980;8.410;2023-04-23T11:36:51;99357.66;;;24.84;40.03
32789;BME280;19141;48.980;8.410;2023-04-23T11:39:17;99349.63;;;24.98;38.37
32789;BME280;19141;48.980;8.410;2023-04-23T11:41:46;99349.56;;;25.03;39.65
32789;BME280;19141;48.980;8.410;2023-04-23T11:44:12;99345.88;;;24.64;37.07
32789;BME280;19141;48.980;8.410;2023-04-23T11:46:37;99338.78;;;25.16;37.98
32789;BME280;19141;48.980;8.410;2023-04-23T11:49:03;99345.41;;;26.29;34.99
32789;BME280;19141;48.980;8.410;2023-04-23T11:51:28;99341.66;;;26.24;34.72
32789;BME280;19141;48.980;8.410;2023-04-23T11:54:01;99342.13;;;25.56;35.26
32789;BME280;19141;48.980;8.410;2023-04-23T11:56:29;99326.19;;;24.15;35.58
32789;BME280;19141;48.980;8.410;2023-04-23T11:58:58;99326.34;;;23.45;37.68
32789;BME280;19141;48.980;8.410;2023-04-23T12:01:25;99327.41;;;24.61;38.28
32789;BME280;19141;48.980;8.410;2023-04-23T12:03:50;99313.59;;;24.19;37.53
32789;BME280;19141;48.980;8.410;2023-04-23T12:06:17;99312.13;;;23.58;37.17
32789;BME280;19141;48.980;8.410;2023-04-23T12:08:45;99311.91;;;24.86;38.00
32789;BME280;19141;48.980;8.410;2023-04-23T12:11:11;99299.97;;;24.82;39.95
32789;BME280;19141;48.980;8.410;2023-04-23T12:13:39;99295.31;;;25.68;37.10
32789;BME280;19141;48.980;8.410;2023-04-23T12:16:04;99287.13;;;25.87;37.64
32789;BME280;19141;48.980;8.410;2023-04-23T12:18:34;99289.75;;;26.43;36.48
32789;BME280;19141;48.980;8.410;2023-04-23T12:21:13;99281.91;;;27.11;34.82
32789;BME280;19141;48.980;8.410;2023-04-23T12:23:40;99277.16;;;27.16;33.06
32789;BME280;19141;48.980;8.410;2023-04-23T12:26:14;99279.16;;;26.56;34.73
32789;BME280;19141;48.980;8.410;2023-04-23T12:28:46;99279.38;;;26.87;32.90
32789;BME280;19141;48.980;8.410;2023-04-23T12:31:18;99269.06;;;25.72;36.09
32789;BME280;19141;48.980;8.410;2023-04-23T12:33:44;99267.25;;;25.49;38.13
32789;BME280;19141;48.980;8.410;2023-04-23T12:36:10;99265.75;;;24.71;37.68
32789;BME280;19141;48.980;8.410;2023-04-23T12:38:36;99268.78;;;24.45;37.94
32789;BME280;19141;48.980;8.410;2023-04-23T12:41:03;99268.50;;;24.47;38.15
32789;BME280;19141;48.980;8.410;2023-04-23T12:43:28;99265.38;;;24.29;37.78
32789;BME280;19141;48.980;8.410;2023-04-23T12:45:54;99257.25;;;24.77;37.82
32789;BME280;19141;48.980;8.410;2023-04-23T12:48:20;99258.50;;;24.66;37.93
32789;BME280;19141;48.980;8.410;2023-04-23T12:50:46;99257.78;;;24.55;38.01
32789;BME280;19141;48.980;8.410;2023-04-23T12:53:12;99254.53;;;24.53;37.53
32789;BME280;19141;48.980;8.410;2023-04-23T12:55:37;99246.91;;;23.63;38.95
32789;BME280;19141;48.980;8.410;2023-04-23T12:58:08;99229.59;;;22.94;39.37
32789;BME280;19141;48.980;8.410;2023-04-23T13:00:33;99222.09;;;22.71;40.01
32789;BME280;19141;48.980;8.410;2023-04-23T13:03:00;99221.78;;;22.78;40.18
32789;BME280;19141;48.980;8.410;2023-04-23T13:05:26;99213.50;;;23.52;39.23
32789;BME280;19141;48.980;8.410;2023-04-23T13:07:51;99215.28;;;24.06;38.57
32789;BME280;19141;48.980;8.410;2023-04-23T13:10:17;99219.56;;;24.13;38.89
32789;BME280;19141;48.980;8.410;2023-04-23T13:12:43;99214.63;;;24.44;38.21
32789;BME280;19141;48.980;8.410;2023-04-23T13:15:09;99218.31;;;24.77;38.73
32789;BME280;19141;48.980;8.410;2023-04-23T13:17:37;99207.75;;;23.59;39.09
32789;BME280;19141;48.980;8.410;2023-04-23T13:20:02;99198.09;;;25.26;39.10
32789;BME280;19141;48.980;8.410;2023-04-23T13:22:29;99190.94;;;24.68;36.55
32789;BME280;19141;48.980;8.410;2023-04-23T13:24:54;99190.63;;;25.50;36.00
32789;BME280;19141;48.980;8.410;2023-04-23T13:27:24;99178.00;;;25.73;35.12
32789;BME280;19141;48.980;8.410;2023-04-23T13:29:50;99191.47;;;25.32;33.56
32789;BME280;19141;48.980;8.410;2023-04-23T13:32:15;99191.66;;;25.35;32.09
32789;BME280;19141;48.980;8.410;2023-04-23T13:34:41;99178.84;;;25.87;32.10
32789;BME280;19141;48.980;8.410;2023-04-23T13:37:07;99177.25;;;25.67;34.59
32789;BME280;19141;48.980;8.410;2023-04-23T13:39:34;99165.09;;;25.08;33.86
32789;BME280;19141;48.980;8.410;2023-04-23T13:42:00;99150.47;;;24.61;32.88
32789;BME280;19141;48.980;8.410;2023-04-23T13:44:26;99144.47;;;23.88;33.13
32789;BME280;19141;48.980;8.410;2023-04-23T13:46:51;99138.13;;;23.68;33.90
32789;BME280;19141;48.980;8.410;2023-04-23T13:49:16;99131.41;;;23.55;34.49
32789;BME280;19141;48.980;8.410;2023-04-23T13:51:42;99130.28;;;23.27;35.46
32789;BME280;19141;48.980;8.410;2023-04-23T13:54:07;99126.06;;;23.11;37.33
32789;BME280;19141;48.980;8.410;2023-04-23T13:56:33;99128.44;;;23.23;38.06
32789;BME280;19141;48.980;8.410;2023-04-23T13:58:58;99119.94;;;22.95;36.07
32789;BME280;19141;48.980;8.410;2023-04-23T14:01:28;99111.75;;;22.46;36.22
32789;BME280;19141;48.980;8.410;2023-04-23T14:03:54;99105.53;;;22.35;36.72
32789;BME280;19141;48.980;8.410;2023-04-23T14:06:20;99091.00;;;22.01;36.93
32789;BME280;19141;48.980;8.410;2023-04-23T14:08:45;99094.19;;;22.23;36.91
32789;BME280;19141;48.980;8.410;2023-04-23T14:11:11;99101.00;;;22.26;37.63
32789;BME280;19141;48.980;8.410;2023-04-23T14:13:36;99096.66;;;22.19;37.97
32789;BME280;19141;48.980;8.410;2023-04-23T14:16:01;99089.91;;;22.07;38.26
32789;BME280;19141;48.980;8.410;2023-04-23T14:18:27;99087.19;;;22.02;39.29
32789;BME280;19141;48.980;8.410;2023-04-23T14:20:52;99087.25;;;21.81;40.14
32789;BME280;19141;48.980;8.410;2023-04-23T14:25:46;99076.44;;;21.71;40.13
32789;BME280;19141;48.980;8.410;2023-04-23T14:28:37;99079.97;;;21.72;40.62
32789;BME280;19141;48.980;8.410;2023-04-23T14:31:03;99063.16;;;21.80;41.06
32789;BME280;19141;48.980;8.410;2023-04-23T14:33:28;99063.72;;;21.61;40.30
32789;BME280;19141;48.980;8.410;2023-04-23T14:35:54;99054.28;;;21.33;40.30
32789;BME280;19141;48.980;8.410;2023-04-23T14:38:19;99061.25;;;21.70;41.16
32789;BME280;19141;48.980;8.410;2023-04-23T14:40:45;99054.84;;;21.40;40.09
32789;BME280;19141;48.980;8.410;2023-04-23T14:43:10;99050.50;;;21.34;39.99
32789;BME280;19141;48.980;8.410;2023-04-23T14:45:36;99049.69;;;21.39;39.39
32789;BME280;19141;48.980;8.410;2023-04-23T14:48:01;99052.69;;;21.32;39.75
32789;BME280;19141;48.980;8.410;2023-04-23T14:50:27;99042.63;;;21.43;39.28
32789;BME280;19141;48.980;8.410;2023-04-23T14:52:53;99036.69;;;21.41;39.42
32789;BME280;19141;48.980;8.410;2023-04-23T14:55:20;99035.84;;;21.56;38.63
32789;BME280;19141;48.980;8.410;2023-04-23T14:57:46;99026.31;;;21.79;40.45
32789;BME280;19141;48.980;8.410;2023-04-23T15:00:12;99020.38;;;21.66;38.74
32789;BME280;19141;48.980;8.410;2023-04-23T15:02:41;99015.25;;;21.45;37.45
32789;BME280;19141;48.980;8.410;2023-04-23T15:05:10;99010.41;;;21.52;38.35
32789;BME280;19141;48.980;8.410;2023-04-23T15:07:36;98997.91;;;21.56;38.26
32789;BME280;19141;48.980;8.410;2023-04-23T15:10:03;98995.25;;;21.40;38.26
32789;BME280;19141;48.980;8.410;2023-04-23T15:15:06;98993.59;;;21.45;38.82
32789;BME280;19141;48.980;8.410;2023-04-23T15:17:38;98993.63;;;21.39;39.21
32789;BME280;19141;48.980;8.410;2023-04-23T15:20:04;98993.91;;;21.33;39.90
32789;BME280;19141;48.980;8.410;2023-04-23T15:22:30;99003.09;;;21.22;39.58
32789;BME280;19141;48.980;8.410;2023-04-23T15:24:55;98998.47;;;21.22;40.48
32789;BME280;19141;48.980;8.410;2023-04-23T15:27:21;98998.22;;;21.13;40.32
32789;BME280;19141;48.980;8.410;2023-04-23T15:29:47;98995.00;;;20.96;40.93
32789;BME280;19141;48.980;8.410;2023-04-23T15:32:12;99004.19;;;20.85;41.16
32789;BME280;19141;48.980;8.410;2023-04-23T15:34:38;99013.13;;;20.91;41.44
32789;BME280;19141;48.980;8.410;2023-04-23T15:37:03;99019.59;;;20.84;42.80
32789;BME280;19141;48.980;8.410;2023-04-23T15:39:28;99021.50;;;20.69;43.28
32789;BME280;19141;48.980;8.410;2023-04-23T15:41:55;99035.25;;;20.47;43.92
32789;BME280;19141;48.980;8.410;2023-04-23T15:44:20;99053.28;;;20.26;45.69
32789;BME280;19141;48.980;8.410;2023-04-23T15:46:46;99066.91;;;19.89;49.12
32789;BME280;19141;48.980;8.410;2023-04-23T15:49:11;99082.53;;;19.44;51.49
32789;BME280;19141;48.980;8.410;2023-04-23T15:51:37;99103.19;;;18.96;54.98
32789;BME280;19141;48.980;8.410;2023-04-23T15:54:03;99107.97;;;18.40;58.36
32789;BME280;19141;48.980;8.410;2023-04-23T15:56:32;99092.03;;;18.39;60.92
32789;BME280;19141;48.980;8.410;2023-04-23T15:58:58;99085.06;;;17.99;68.06
32789;BME280;19141;48.980;8.410;2023-04-23T16:01:23;99077.19;;;18.14;69.28
32789;BME280;19141;48.980;8.410;2023-04-23T16:03:48;99079.28;;;17.90;74.15
32789;BME280;19141;48.980;8.410;2023-04-23T16:06:14;99085.94;;;17.83;76.26
32789;BME280;19141;48.980;8.410;2023-04-23T16:08:39;99082.75;;;17.52;77.35
32789;BME280;19141;48.980;8.410;2023-04-23T16:11:05;99095.44;;;17.35;78.22
32789;BME280;19141;48.980;8.410;2023-04-23T16:13:33;99098.44;;;17.22;77.49
32789;BME280;19141;48.980;8.410;2023-04-23T16:15:59;99099.25;;;17.22;77.04
32789;BME280;19141;48.980;8.410;2023-04-23T16:18:24;99090.28;;;17.33;77.32
32789;BME280;19141;48.980;8.410;2023-04-23T16:20:50;99105.94;;;17.03;77.85
32789;BME280;19141;48.980;8.410;2023-04-23T16:23:15;99122.16;;;16.51;80.00
32789;BME280;19141;48.980;8.410;2023-04-23T16:25:41;99152.53;;;16.51;79.84
32789;BME280;19141;48.980;8.410;2023-04-23T16:28:07;99182.84;;;16.12;84.10
32789;BME280;19141;48.980;8.410;2023-04-23T16:30:33;99173.59;;;15.61;91.44
32789;BME280;19141;48.980;8.410;2023-04-23T16:32:58;99166.72;;;14.81;98.00
32789;BME280;19141;48.980;8.410;2023-04-23T16:35:24;99151.88;;;14.67;100.00
32789;BME280;19141;48.980;8.410;2023-04-23T16:37:49;99151.63;;;14.13;100.00
32789;BME280;19141;48.980;8.410;2023-04-23T16:40:15;99151.59;;;13.95;100.00
32789;BME280;19141;48.980;8.410;2023-04-23T16:42:41;99140.31;;;13.93;100.00
32789;BME280;19141;48.980;8.410;2023-04-23T16:45:07;99154.66;;;13.99;100.00
32789;BME280;19141;48.980;8.410;2023-04-23T16:47:33;99157.44;;;14.10;100.00
32789;BME280;19141;48.980;8.410;2023-04-23T16:49:58;99161.91;;;14.17;100.00
32789;BME280;19141;48.980;8.410;2023-04-23T16:52:23;99171.66;;;14.29;100.00
32789;BME280;19141;48.980;8.410;2023-04-23T16:54:49;99160.31;;;14.46;100.00
32789;BME280;19141;48.980;8.410;2023-04-23T16:57:15;99155.31;;;14.56;100.00
32789;BME280;19141;48.980;8.410;2023-04-23T16:59:41;99158.94;;;14.61;100.00
32789;BME280;19141;48.980;8.410;2023-04-23T17:02:06;99162.13;;;14.70;100.00
32789;BME280;19141;48.980;8.410;2023-04-23T17:04:32;99156.81;;;14.82;100.00
32789;BME280;19141;48.980;8.410;2023-04-23T17:06:57;99150.66;;;14.81;100.00
32789;BME280;19141;48.980;8.410;2023-04-23T17:09:23;99160.66;;;14.86;100.00
32789;BME280;19141;48.980;8.410;2023-04-23T17:11:48;99153.09;;;14.83;98.60
32789;BME280;19141;48.980;8.410;2023-04-23T17:14:14;99150.91;;;14.91;98.64
32789;BME280;19141;48.980;8.410;2023-04-23T17:16:39;99146.97;;;14.94;99.24
32789;BME280;19141;48.980;8.410;2023-04-23T17:19:05;99136.75;;;15.14;97.18
32789;BME280;19141;48.980;8.410;2023-04-23T17:21:31;99138.63;;;15.14;100.00
32789;BME280;19141;48.980;8.410;2023-04-23T17:23:57;99138.38;;;15.15;100.00
32789;BME280;19141;48.980;8.410;2023-04-23T17:26:22;99126.84;;;15.15;99.84
32789;BME280;19141;48.980;8.410;2023-04-23T17:28:47;99135.44;;;15.05;100.00